CH4SAO CYYJ-CYVR
Flight info
| Callsign | CH4SAO |
|---|---|
| Flight time | N/A |
| Altitude | |
| Route | |
| Aircraft | C172 |
Departure
| Time | 2026-04-26 03:08 |
|---|---|
| Airport | Victoria International Airport (CYYJ) |
Arrival
| Time | N/A |
|---|---|
| Airport | Vancouver International Airport (CYVR) |
| Time | Latitude | Longitude | Altitude | Speed | Heading |
|---|---|---|---|---|---|
| 2026-04-26 02:59 | 48.64887 | -123.43533 | 50 ft | 3 kts | 158° |
| 2026-04-26 03:00 | 48.64880 | -123.43543 | 50 ft | 1 kts | 288° |
| 2026-04-26 03:00 | 48.64880 | -123.43546 | 50 ft | 0 kts | 291° |
| 2026-04-26 03:00 | 48.64881 | -123.43546 | 50 ft | 0 kts | 293° |
| 2026-04-26 03:01 | 48.64890 | -123.43574 | 50 ft | 13 kts | 306° |
| 2026-04-26 03:01 | 48.65013 | -123.43624 | 50 ft | 21 kts | 292° |
| 2026-04-26 03:01 | 48.65047 | -123.43845 | 49 ft | 18 kts | 289° |
| 2026-04-26 03:01 | 48.65073 | -123.43874 | 49 ft | 0 kts | 2° |
| 2026-04-26 03:03 | 48.65072 | -123.43874 | 49 ft | 0 kts | 2° |
| 2026-04-26 03:04 | 48.65073 | -123.43874 | 49 ft | 0 kts | 352° |
| 2026-04-26 03:06 | 48.65074 | -123.43875 | 49 ft | 3 kts | 343° |
| 2026-04-26 03:06 | 48.65174 | -123.43886 | 48 ft | 21 kts | 86° |
| 2026-04-26 03:06 | 48.65102 | -123.43506 | 50 ft | 61 kts | 106° |
| 2026-04-26 03:07 | 48.64948 | -123.42708 | 52 ft | 93 kts | 105° |
| 2026-04-26 03:07 | 48.64752 | -123.41669 | 53 ft | 109 kts | 107° |
| 2026-04-26 03:07 | 48.64605 | -123.40837 | 490 ft | 74 kts | 103° |
| 2026-04-26 03:07 | 48.64539 | -123.39944 | 635 ft | 87 kts | 94° |
| 2026-04-26 03:08 | 48.64576 | -123.39001 | 845 ft | 92 kts | 84° |
| 2026-04-26 03:08 | 48.64779 | -123.38115 | 1027 ft | 96 kts | 40° |
| 2026-04-26 03:08 | 48.65380 | -123.37476 | 1069 ft | 112 kts | 31° |
| 2026-04-26 03:08 | 48.66059 | -123.36839 | 1163 ft | 115 kts | 26° |
| 2026-04-26 03:09 | 48.66770 | -123.36289 | 1245 ft | 116 kts | 21° |
| 2026-04-26 03:09 | 48.67500 | -123.35777 | 1366 ft | 116 kts | 21° |
| 2026-04-26 03:09 | 48.68259 | -123.35304 | 1445 ft | 117 kts | 17° |
| 2026-04-26 03:09 | 48.68989 | -123.34929 | 1693 ft | 105 kts | 15° |
| 2026-04-26 03:10 | 48.69671 | -123.34604 | 1899 ft | 101 kts | 14° |
| 2026-04-26 03:10 | 48.70339 | -123.34287 | 2047 ft | 104 kts | 12° |
| 2026-04-26 03:10 | 48.71052 | -123.34025 | 2166 ft | 108 kts | 11° |
| 2026-04-26 03:10 | 48.71800 | -123.33744 | 2245 ft | 112 kts | 12° |
| 2026-04-26 03:11 | 48.72566 | -123.33443 | 2301 ft | 117 kts | 12° |
| 2026-04-26 03:11 | 48.73367 | -123.33115 | 2303 ft | 118 kts | 12° |
| 2026-04-26 03:11 | 48.74084 | -123.32787 | 2289 ft | 108 kts | 13° |
| 2026-04-26 03:11 | 48.74799 | -123.32459 | 2466 ft | 105 kts | 13° |
| 2026-04-26 03:12 | 48.75534 | -123.32111 | 2497 ft | 115 kts | 14° |